KACB/ACB METAR and TAF weather

Enter ICAO airport designator
Station Type Date Time Source
KACB METAR 2019/05/26 22:56 UTC NOAA

KACB 262256Z AUTO 00000KT 10SM CLR 20/07 A3007 RMK AO2 T02000066


Station Type Date Time Source
KACB Decoded METAR 2019/05/26 22:56 UTC NOAA

Bellaire, Antrim County Airport, MI, United States (KACB) 44-59-18N 085-11-54W
May 26, 2019 - 06:56 PM EDT / 2019.05.26 2256 UTC
Wind: Calm:0
Visibility: 10 mile(s):0
Sky conditions: clear
Temperature: 68.0 F (20.0 C)
Dew Point: 43.9 F (6.6 C)
Relative Humidity: 41%
Pressure (altimeter): 30.07 in. Hg (1018 hPa)
ob: KACB 262256Z AUTO 00000KT 10SM CLR 20/07 A3007 RMK AO2 T02000066
cycle: 23

Station Type Date Time Source
KACB TAF UTC NOAA

Error!

Example: see airport list